Ashland, OR

9:05 AM PDT on July 05, 2015 (GMT -0700)
Tolman Creek Mountain | | Change Station
CLOSE
Current Station
Personal Weather Station
Location: Ashland, OR
Elevation: 2884 ft
Nearby Weather Stations
Active Advisory: Fire Weather Watch Active Notice: Record Report

Elev 2884 ft 42.16 °N, 122.67 °W | Updated 6 minutes ago

Mostly Cloudy
Mostly Cloudy
81.1 °F
Feels Like 81 °F
N
0.0
Wind Variable Wind from NNE

Today
High -- | Low -- °F
--% Chance of Precip.
Yesterday
High -- | Low -- °F
Precip. -- in
5:40 AM 8:49 PM
Waning Gibbous, 84% visible
Pressure 29.83 in
Visibility 10.0 miles
Clouds Clear
Heat Index 81 °F
Dew Point 55 °F
Humidity 41%
Rainfall 0.00 in
Snow Depth Not available.
UV 4 out of 12
Pollen 7.00 out of 12
Air Quality Not available.
Flu Activity Not available.
METAR KMFR 051553Z 00000KT 10SM CLR 26/11 A2988 RMK AO2 SLP102 T02610111

More Conditions Fewer Conditions

Pressure 29.83 in
Visibility 10.0 miles
Clouds Clear
Heat Index 81 °F
Dew Point 55 °F
Humidity 41%
Rainfall 0.00 in
Snow Depth Not available.
UV 4 out of 12
Pollen 7.00 out of 12
Air Quality Not available.
Flu Activity Not available.
METAR KMFR 051553Z 00000KT 10SM CLR 26/11 A2988 RMK AO2 SLP102 T02610111

More Conditions Fewer Conditions

10-Day Weather Forecast

×

Almanac

Astronomy

Jul. 05, 2015 Rise Set
Actual Time
Civil Twilight
Nautical Twilight
Astronomical Twilight
Moon
Length of Visible Light
Length of Day
Tomorrow will be .
, % of the Moon is Illuminated

Today's Extremes

State Highs State Lows

Community

WunderPhotos

Upload Photos

1,835,300 photos uploaded!

WunderBlogs® & News

Nearby

Air Quality

  Air Quality AQ Index Pollutant
Not available.

Snow Depth

Station Depth Elevation

Earthquake Activity

City Distance Mag. Time & Date
Minimum magnitude displayed is 2.5.

Coastal Water Temperatures

Place Temperature

Stations

Nearby Weather Stations

Station Location Temp. Windchill Dew Point Humidity Wind Precip. Elev Updated Type
                   
Fire Weather Watch
Statement as of 4:43 AM PDT on July 05, 2015

... Fire Weather Watch in effect from Monday afternoon through
Monday evening for increased thunderstorm activity...

The National Weather Service in Medford has issued a Fire Weather
Watch... which is in effect from Monday afternoon through Monday
evening.

* Impacts: dry thunderstorms with gusty and erratic outflow winds
will create erratic fire behavior and new fire starts.

* Affected area:
in southwest or... fire weather zones 617... 621 and 622.

* Counties affected: Jackson and eastern Douglas counties in
southern Oregon.

* Thunderstorms... thunderstorm activity is expected to increase
again Monday afternoon and evening... extending west into the
western Cascade foothills.

Precautionary/preparedness actions...

A Fire Weather Watch means that critical fire weather conditions
are forecast to occur. Listen for later forecasts and possible red
flag warnings.



Visit US at www.Weather.Gov/Medford